Time;durP1;ratioP1;P1;durP2;ratioP2;P2;SDS_P1;SDS_P2;PMS_P1;PMS_P2;Temp;Humidity;BMP_temperature;BMP_pressure;BME280_temperature;BME280_humidity;BME280_pressure;Samples;Min_cycle;Max_cycle;Signal;HPM_P1;HPM_P2
2024/05/01 00:00:40;;;;;;;9.05;7.47;;;18.40;11.80;;;;;;5384388;26;20216;-72
2024/05/01 00:03:06;;;;;;;13.85;6.95;;;18.40;12.70;;;;;;5379476;26;20924;-70
2024/05/01 00:05:32;;;;;;;8.10;7.10;;;18.30;13.10;;;;;;5378932;26;20700;-70
2024/05/01 00:07:58;;;;;;;12.02;7.28;;;18.30;13.50;;;;;;5379126;26;20266;-69
2024/05/01 00:10:23;;;;;;;10.15;7.10;;;18.40;13.60;;;;;;5379411;26;20700;-70
2024/05/01 00:12:49;;;;;;;10.80;7.80;;;18.20;13.60;;;;;;5379244;26;20311;-70
2024/05/01 00:15:14;;;;;;;9.57;7.82;;;18.40;14.10;;;;;;5378681;26;20266;-70
2024/05/01 00:17:40;;;;;;;12.23;8.23;;;18.50;14.80;;;;;;5379319;26;20778;-70
2024/05/01 00:20:06;;;;;;;12.85;8.40;;;18.10;14.70;;;;;;5378991;26;20212;-70
2024/05/01 00:22:31;;;;;;;10.45;8.15;;;18.20;15.00;;;;;;5379176;26;20232;-71
2024/05/01 00:24:57;;;;;;;14.32;8.40;;;18.20;14.20;;;;;;5379054;26;20755;-70
2024/05/01 00:27:22;;;;;;;9.18;7.85;;;18.20;14.10;;;;;;5379291;26;20294;-70
2024/05/01 00:29:48;;;;;;;11.02;8.77;;;18.10;14.30;;;;;;5379053;26;20568;-71
2024/05/01 00:32:13;;;;;;;11.73;8.10;;;18.10;14.30;;;;;;5378781;26;20286;-72
2024/05/01 00:34:42;;;;;;;11.10;7.97;;;18.10;14.10;;;;;;5378617;26;20570;-70
2024/05/01 00:37:08;;;;;;;10.07;8.10;;;18.10;13.10;;;;;;5379193;26;20319;-70
2024/05/01 00:39:33;;;;;;;9.88;7.93;;;18.10;13.00;;;;;;5378776;26;20327;-70
2024/05/01 00:41:59;;;;;;;9.65;7.47;;;18.00;12.40;;;;;;5378840;26;20215;-70
2024/05/01 00:44:24;;;;;;;9.60;7.22;;;18.00;12.00;;;;;;5378593;26;20318;-72
2024/05/01 00:46:50;;;;;;;8.88;7.30;;;18.00;11.60;;;;;;5379088;26;20220;-71
2024/05/01 00:49:17;;;;;;;10.07;7.90;;;18.00;11.20;;;;;;5378196;26;20313;-70
2024/05/01 00:51:42;;;;;;;9.27;7.97;;;18.00;11.00;;;;;;5378717;26;20287;-70
2024/05/01 00:54:08;;;;;;;11.70;7.45;;;17.90;10.30;;;;;;5378678;26;20576;-69
2024/05/01 00:56:34;;;;;;;10.18;7.50;;;17.90;10.60;;;;;;5378400;26;20569;-71
2024/05/01 00:59:00;;;;;;;11.93;7.25;;;18.00;10.30;;;;;;5347115;26;20270;-71
2024/05/01 01:01:28;;;;;;;9.57;7.80;;;17.90;10.00;;;;;;5378514;26;20228;-71
2024/05/01 01:03:54;;;;;;;10.35;7.85;;;17.90;9.80;;;;;;5378052;26;20324;-71
2024/05/01 01:06:19;;;;;;;12.50;7.97;;;17.80;9.40;;;;;;5378568;26;20220;-71
2024/05/01 01:08:45;;;;;;;11.85;8.40;;;17.90;9.10;;;;;;5346632;26;20266;-71
2024/05/01 01:11:11;;;;;;;12.55;8.82;;;18.10;9.50;;;;;;5378227;26;20215;-70
2024/05/01 01:13:37;;;;;;;12.52;8.43;;;17.80;8.80;;;;;;5378295;26;20243;-70
2024/05/01 01:16:04;;;;;;;8.68;7.75;;;17.80;8.10;;;;;;5378163;26;20216;-71
2024/05/01 01:18:30;;;;;;;8.45;7.50;;;17.80;8.20;;;;;;5377986;26;20325;-70
2024/05/01 01:20:56;;;;;;;10.93;7.97;;;17.70;8.50;;;;;;5377887;26;20224;-69
2024/05/01 01:23:22;;;;;;;9.10;7.40;;;17.70;8.40;;;;;;5346338;26;20244;-70
2024/05/01 01:25:48;;;;;;;12.35;7.78;;;17.70;9.20;;;;;;5377065;26;20219;-70
2024/05/01 01:28:17;;;;;;;9.32;7.47;;;17.60;8.50;;;;;;5378198;26;20220;-71
2024/05/01 01:30:42;;;;;;;9.43;7.45;;;17.70;8.00;;;;;;5377502;26;20228;-71
2024/05/01 01:33:08;;;;;;;12.32;8.10;;;17.70;8.20;;;;;;5378489;26;20341;-71
2024/05/01 01:35:34;;;;;;;9.80;8.10;;;17.70;7.50;;;;;;5378078;26;20273;-71
2024/05/01 01:37:59;;;;;;;12.30;8.38;;;17.60;8.00;;;;;;5377461;26;20333;-71
2024/05/01 01:40:25;;;;;;;11.45;6.85;;;17.60;7.20;;;;;;5377491;26;20220;-70
2024/05/01 01:42:50;;;;;;;13.43;8.10;;;17.70;7.20;;;;;;5378160;26;20236;-71
2024/05/01 01:45:16;;;;;;;13.43;8.02;;;17.60;6.10;;;;;;5377763;26;20223;-70
2024/05/01 01:47:41;;;;;;;10.70;7.78;;;17.60;6.00;;;;;;5378104;26;20271;-70
2024/05/01 01:50:07;;;;;;;12.30;8.15;;;17.60;6.30;;;;;;5378333;26;20219;-70
2024/05/01 01:52:32;;;;;;;7.82;7.05;;;17.70;6.90;;;;;;5378090;26;20236;-70
2024/05/01 01:54:58;;;;;;;9.95;7.15;;;17.70;7.30;;;;;;5377669;26;20772;-70
2024/05/01 01:57:24;;;;;;;12.45;8.30;;;17.70;6.70;;;;;;5377777;26;20645;-70
2024/05/01 01:59:49;;;;;;;12.02;7.45;;;17.70;6.50;;;;;;5377475;26;20220;-70
2024/05/01 02:02:15;;;;;;;8.13;6.97;;;17.70;6.90;;;;;;5376960;26;20258;-70
2024/05/01 02:04:40;;;;;;;10.98;7.65;;;17.60;6.70;;;;;;5377583;26;20278;-70
2024/05/01 02:07:06;;;;;;;11.02;7.30;;;17.70;6.40;;;;;;5377381;26;20235;-71
2024/05/01 02:09:32;;;;;;;13.30;7.90;;;17.70;6.20;;;;;;5376560;26;20617;-70
2024/05/01 02:11:57;;;;;;;8.00;7.05;;;17.70;5.70;;;;;;5377471;26;20266;-71
2024/05/01 02:14:23;;;;;;;11.48;7.55;;;17.60;6.60;;;;;;5376721;26;20286;-71
2024/05/01 02:16:48;;;;;;;12.95;6.70;;;17.60;6.20;;;;;;5376849;26;20751;-72
2024/05/01 02:19:14;;;;;;;8.73;7.05;;;17.60;5.00;;;;;;5375140;26;20220;-70
2024/05/01 02:21:39;;;;;;;10.70;7.00;;;17.40;5.00;;;;;;5375958;26;20263;-70
2024/05/01 02:24:05;;;;;;;10.43;7.28;;;17.50;5.00;;;;;;5377330;26;20240;-71
2024/05/01 02:26:30;;;;;;;13.68;7.55;;;17.50;5.20;;;;;;5377440;26;20258;-71
2024/05/01 02:28:56;;;;;;;9.57;6.57;;;17.50;5.00;;;;;;5377458;26;20220;-70
2024/05/01 02:31:21;;;;;;;15.15;7.75;;;17.40;5.00;;;;;;5377227;26;20570;-70
2024/05/01 02:33:47;;;;;;;10.50;7.30;;;17.40;5.30;;;;;;5377721;26;20242;-70
2024/05/01 02:36:12;;;;;;;9.95;7.45;;;17.40;5.00;;;;;;5346117;26;20267;-70
2024/05/01 02:38:38;;;;;;;11.25;6.95;;;17.20;5.00;;;;;;5377185;26;20733;-70
2024/05/01 02:41:03;;;;;;;17.13;7.22;;;17.30;5.00;;;;;;5377142;26;20274;-71
2024/05/01 02:43:29;;;;;;;8.90;7.15;;;17.30;5.10;;;;;;5377257;26;20286;-71
2024/05/01 02:45:54;;;;;;;10.27;7.00;;;17.30;5.00;;;;;;5377272;26;20224;-70
2024/05/01 02:48:19;;;;;;;10.65;7.13;;;17.30;5.00;;;;;;5376791;26;20313;-70
2024/05/01 02:50:45;;;;;;;10.75;6.90;;;17.20;5.00;;;;;;5376978;26;20231;-71
2024/05/01 02:53:10;;;;;;;10.23;7.18;;;17.00;5.00;;;;;;5377009;26;20274;-70
2024/05/01 02:55:36;;;;;;;8.60;6.60;;;17.20;5.00;;;;;;5376677;26;20220;-71
2024/05/01 02:58:01;;;;;;;10.82;7.18;;;17.30;5.00;;;;;;5377091;26;20306;-70
2024/05/01 03:00:27;;;;;;;15.25;6.95;;;17.40;5.00;;;;;;5376910;26;20278;-70
2024/05/01 03:02:53;;;;;;;9.60;6.55;;;17.30;5.00;;;;;;5377412;26;20244;-71
2024/05/01 03:05:18;;;;;;;10.85;7.15;;;17.30;5.00;;;;;;5376899;26;20266;-71
2024/05/01 03:07:44;;;;;;;10.82;5.60;;;17.20;5.00;;;;;;5346124;26;20247;-70
2024/05/01 03:10:10;;;;;;;10.95;6.80;;;17.20;5.00;;;;;;5376689;26;20306;-70
2024/05/01 03:12:38;;;;;;;9.07;6.32;;;17.20;5.00;;;;;;5375958;26;20623;-70
2024/05/01 03:15:04;;;;;;;7.40;6.43;;;17.20;5.00;;;;;;5376083;26;20235;-70
2024/05/01 03:17:29;;;;;;;9.98;6.88;;;17.20;5.00;;;;;;5376357;26;20223;-70
2024/05/01 03:19:55;;;;;;;9.88;6.50;;;17.20;5.00;;;;;;5376614;26;20220;-70
2024/05/01 03:22:20;;;;;;;10.55;7.05;;;17.00;5.00;;;;;;5376576;26;20266;-70
2024/05/01 03:24:46;;;;;;;12.82;6.93;;;17.30;5.00;;;;;;5376559;26;20224;-70
2024/05/01 03:27:11;;;;;;;16.63;6.63;;;17.20;5.00;;;;;;5376851;26;20220;-70
2024/05/01 03:29:37;;;;;;;9.32;6.45;;;17.20;5.00;;;;;;5375384;26;20231;-70
2024/05/01 03:32:02;;;;;;;10.73;6.63;;;17.20;5.00;;;;;;5374624;26;20220;-70
2024/05/01 03:34:28;;;;;;;9.23;6.97;;;17.20;5.00;;;;;;5376191;26;20281;-70
2024/05/01 03:36:53;;;;;;;9.30;7.38;;;17.00;5.00;;;;;;5376728;26;20227;-71
2024/05/01 03:39:18;;;;;;;9.40;7.63;;;17.20;5.00;;;;;;5375625;26;20704;-69
2024/05/01 03:41:44;;;;;;;10.68;7.60;;;17.20;5.00;;;;;;5375625;26;20267;-69
2024/05/01 03:44:10;;;;;;;11.77;7.05;;;17.20;5.00;;;;;;5375533;26;20232;-70
2024/05/01 03:46:36;;;;;;;8.48;7.07;;;17.10;5.00;;;;;;5375006;26;20224;-71
2024/05/01 03:49:02;;;;;;;8.52;6.80;;;17.10;5.00;;;;;;5375875;26;20842;-70
2024/05/01 03:51:27;;;;;;;8.45;7.32;;;17.00;5.00;;;;;;5376210;26;20281;-70
2024/05/01 03:53:53;;;;;;;11.20;7.15;;;17.00;5.00;;;;;;5376149;26;20711;-70
2024/05/01 03:56:22;;;;;;;13.55;7.35;;;17.00;5.00;;;;;;5376151;26;20224;-69
2024/05/01 03:58:49;;;;;;;10.13;6.97;;;17.00;5.00;;;;;;5345174;26;20258;-70
2024/05/01 04:01:14;;;;;;;11.38;7.55;;;17.00;5.00;;;;;;5376135;26;20232;-70
2024/05/01 04:03:40;;;;;;;9.23;7.13;;;17.10;5.00;;;;;;5376228;26;20244;-70
2024/05/01 04:06:07;;;;;;;8.60;6.57;;;16.90;5.00;;;;;;5375719;26;20223;-70
2024/05/01 04:08:34;;;;;;;12.32;7.45;;;16.90;5.00;;;;;;5375698;26;20252;-70
2024/05/01 04:11:02;;;;;;;9.38;6.80;;;16.90;5.00;;;;;;5375963;26;20692;-69
2024/05/01 04:13:28;;;;;;;11.55;7.03;;;16.80;5.00;;;;;;5377098;26;20267;-69
2024/05/01 04:15:53;;;;;;;9.75;6.57;;;16.80;5.00;;;;;;5409700;26;20227;-70
2024/05/01 04:18:19;;;;;;;11.00;6.80;;;16.80;5.00;;;;;;5410705;26;20231;-70
2024/05/01 04:20:44;;;;;;;11.75;6.75;;;16.80;5.00;;;;;;5410011;26;20223;-69
2024/05/01 04:23:10;;;;;;;7.78;6.53;;;16.90;5.00;;;;;;5409989;26;20575;-70
2024/05/01 04:25:35;;;;;;;8.15;6.50;;;16.80;5.00;;;;;;5409887;26;20232;-71
2024/05/01 04:28:00;;;;;;;11.27;6.78;;;16.80;5.00;;;;;;5410069;26;20633;-70
2024/05/01 04:30:26;;;;;;;9.98;6.63;;;16.80;5.00;;;;;;5409859;26;20600;-70
2024/05/01 04:32:51;;;;;;;12.57;6.20;;;16.80;5.00;;;;;;5410899;26;20235;-70
2024/05/01 04:35:17;;;;;;;8.63;6.20;;;16.80;5.00;;;;;;5422102;26;20234;-70
2024/05/01 04:37:42;;;;;;;12.40;6.20;;;16.90;5.00;;;;;;5413625;26;21130;-70
2024/05/01 04:40:08;;;;;;;7.93;6.00;;;16.80;5.00;;;;;;5413421;26;20273;-69
2024/05/01 04:42:33;;;;;;;7.43;5.35;;;16.80;5.00;;;;;;5413616;26;20265;-70
2024/05/01 04:44:59;;;;;;;12.75;6.25;;;16.80;5.00;;;;;;5413352;26;20230;-70
2024/05/01 04:47:24;;;;;;;8.82;6.10;;;16.80;5.00;;;;;;5413605;26;20242;-69
2024/05/01 04:49:51;;;;;;;7.53;5.80;;;16.70;5.00;;;;;;5413426;26;20310;-70
2024/05/01 04:52:17;;;;;;;9.15;5.88;;;16.80;5.00;;;;;;5407372;26;20781;-70
2024/05/01 04:54:43;;;;;;;7.68;6.20;;;16.70;5.00;;;;;;5411346;26;20235;-70
2024/05/01 04:57:08;;;;;;;7.25;5.72;;;16.80;5.00;;;;;;5412759;26;20262;-70
2024/05/01 04:59:34;;;;;;;8.63;5.63;;;16.80;5.00;;;;;;5413194;26;20274;-72
2024/05/01 05:01:59;;;;;;;11.15;5.93;;;16.80;5.00;;;;;;5413167;26;20227;-70
2024/05/01 05:04:25;;;;;;;8.13;6.05;;;16.90;5.00;;;;;;5412906;26;20322;-71
2024/05/01 05:06:50;;;;;;;11.40;6.03;;;16.90;5.00;;;;;;5413478;26;20611;-72
2024/05/01 05:09:16;;;;;;;8.05;5.90;;;16.80;5.00;;;;;;5413123;26;20230;-70
2024/05/01 05:11:41;;;;;;;8.45;5.45;;;17.00;5.00;;;;;;5413406;26;20610;-71
2024/05/01 05:14:09;;;;;;;8.93;6.03;;;17.00;5.00;;;;;;5413131;26;20320;-70
2024/05/01 05:16:34;;;;;;;7.40;5.63;;;16.80;5.00;;;;;;5412948;26;20234;-73
2024/05/01 05:19:01;;;;;;;7.32;6.07;;;17.00;5.00;;;;;;5413618;26;20270;-71
2024/05/01 05:21:26;;;;;;;10.25;5.90;;;17.00;5.00;;;;;;5413755;26;20222;-70
2024/05/01 05:23:51;;;;;;;9.88;5.70;;;17.10;5.00;;;;;;5413746;26;20231;-71
2024/05/01 05:26:17;;;;;;;10.63;5.68;;;16.90;5.00;;;;;;5413494;26;20230;-70
2024/05/01 05:28:44;;;;;;;7.28;5.50;;;17.10;5.00;;;;;;5413858;26;20219;-71
2024/05/01 05:31:09;;;;;;;8.35;5.60;;;17.20;5.00;;;;;;5414545;26;20277;-71
2024/05/01 05:33:36;;;;;;;6.00;5.30;;;17.20;5.00;;;;;;5413764;26;20250;-72
2024/05/01 05:36:02;;;;;;;8.18;5.30;;;17.30;5.00;;;;;;5412942;26;20273;-70
2024/05/01 05:38:28;;;;;;;6.50;5.63;;;17.30;5.00;;;;;;5413401;26;20226;-72
2024/05/01 05:40:53;;;;;;;8.00;6.07;;;17.30;5.00;;;;;;5413682;26;20230;-72
2024/05/01 05:43:19;;;;;;;7.18;5.70;;;17.40;5.00;;;;;;5413763;26;20235;-71
2024/05/01 05:45:44;;;;;;;11.98;5.70;;;17.50;5.00;;;;;;5411685;26;20230;-70
2024/05/01 05:48:15;;;;;;;11.32;6.03;;;17.50;5.00;;;;;;5413996;26;20223;-71
2024/05/01 05:50:41;;;;;;;7.75;6.00;;;17.60;5.00;;;;;;5413853;26;20219;-71
2024/05/01 05:53:07;;;;;;;11.93;5.53;;;17.60;5.00;;;;;;5380810;26;870149;-70
2024/05/01 05:55:33;;;;;;;8.10;6.07;;;17.60;5.00;;;;;;5412948;26;20222;-69
2024/05/01 05:57:59;;;;;;;11.00;5.50;;;17.60;5.00;;;;;;5410825;26;20249;-70
2024/05/01 06:00:25;;;;;;;8.20;5.70;;;17.70;5.00;;;;;;5396947;26;20223;-70
2024/05/01 06:02:50;;;;;;;8.13;5.75;;;17.70;5.00;;;;;;5377408;26;20232;-70
2024/05/01 06:05:16;;;;;;;7.88;5.38;;;17.80;5.00;;;;;;5377406;26;20224;-72
2024/05/01 06:07:41;;;;;;;7.38;5.97;;;17.80;5.00;;;;;;5377352;26;20262;-72
2024/05/01 06:10:07;;;;;;;7.70;5.60;;;18.00;5.00;;;;;;5377330;26;20220;-71
2024/05/01 06:12:33;;;;;;;7.38;4.90;;;18.00;5.00;;;;;;5377193;26;20239;-70
2024/05/01 06:14:58;;;;;;;11.60;5.53;;;18.20;5.00;;;;;;5377383;26;20224;-71
2024/05/01 06:17:24;;;;;;;6.03;5.32;;;18.60;5.00;;;;;;5346747;26;20244;-69
2024/05/01 06:19:49;;;;;;;7.13;5.07;;;18.70;5.00;;;;;;5376619;26;20774;-71
2024/05/01 06:22:15;;;;;;;8.32;4.35;;;19.00;5.00;;;;;;5375281;26;20273;-70
2024/05/01 06:24:40;;;;;;;8.23;4.88;;;19.30;5.00;;;;;;5373519;26;20254;-70
2024/05/01 06:27:07;;;;;;;10.43;4.95;;;19.60;5.00;;;;;;5409250;26;20246;-71
2024/05/01 06:29:33;;;;;;;5.38;4.82;;;19.90;5.00;;;;;;5411963;26;20269;-72
2024/05/01 06:31:58;;;;;;;5.70;4.90;;;20.10;5.00;;;;;;5412844;26;20223;-70
2024/05/01 06:34:24;;;;;;;7.18;5.20;;;20.40;5.00;;;;;;5412531;26;20577;-71
2024/05/01 06:36:49;;;;;;;4.43;4.03;;;20.60;5.00;;;;;;5412594;26;20292;-70
2024/05/01 06:39:15;;;;;;;5.75;4.15;;;20.80;5.00;;;;;;5412821;26;20273;-72
2024/05/01 06:41:40;;;;;;;12.80;5.93;;;21.00;5.00;;;;;;5411997;26;20230;-70
2024/05/01 06:44:06;;;;;;;6.88;4.35;;;21.10;5.00;;;;;;5412537;26;20231;-72
2024/05/01 06:46:31;;;;;;;5.65;4.47;;;21.30;5.00;;;;;;5412530;26;21082;-72
2024/05/01 06:48:57;;;;;;;9.65;4.60;;;21.40;5.00;;;;;;5412568;26;20282;-70
2024/05/01 06:51:22;;;;;;;11.02;4.47;;;21.60;5.00;;;;;;5412635;26;20227;-72
2024/05/01 06:53:47;;;;;;;4.85;4.35;;;21.70;5.00;;;;;;5412569;26;20235;-71
2024/05/01 06:56:14;;;;;;;6.45;4.70;;;21.80;5.00;;;;;;5411623;26;20272;-71
2024/05/01 06:58:40;;;;;;;9.90;4.50;;;21.90;5.00;;;;;;5413928;26;20258;-69
2024/05/01 07:01:05;;;;;;;5.35;4.35;;;22.10;5.00;;;;;;5417974;26;20234;-70
2024/05/01 07:03:30;;;;;;;5.93;4.35;;;21.90;5.00;;;;;;5412440;26;20770;-70
2024/05/01 07:05:56;;;;;;;7.25;4.10;;;22.20;5.00;;;;;;5411865;26;20223;-72
2024/05/01 07:08:21;;;;;;;12.52;5.03;;;22.40;5.00;;;;;;5380593;26;20256;-70
2024/05/01 07:10:47;;;;;;;4.35;3.95;;;22.30;5.00;;;;;;5380559;26;20226;-71
2024/05/01 07:13:12;;;;;;;5.47;4.50;;;22.40;5.00;;;;;;5412298;26;20231;-70
2024/05/01 07:15:38;;;;;;;9.05;4.68;;;22.30;5.00;;;;;;5412370;26;20231;-71
2024/05/01 07:18:04;;;;;;;7.57;4.75;;;22.60;5.00;;;;;;5414767;26;20264;-71
2024/05/01 07:20:30;;;;;;;6.65;4.45;;;22.60;5.00;;;;;;5416741;26;20231;-69
2024/05/01 07:22:55;;;;;;;6.78;3.90;;;22.70;5.00;;;;;;5412517;26;20875;-71
2024/05/01 07:25:21;;;;;;;6.60;4.47;;;22.80;5.00;;;;;;5411660;26;20320;-71
2024/05/01 07:27:46;;;;;;;8.73;4.47;;;22.90;5.00;;;;;;5412146;26;20227;-70
2024/05/01 07:30:12;;;;;;;10.40;4.25;;;23.00;5.00;;;;;;5411920;26;20238;-69
2024/05/01 07:32:37;;;;;;;6.05;4.20;;;23.00;5.00;;;;;;5411725;26;20238;-70
2024/05/01 07:35:03;;;;;;;5.05;4.32;;;23.10;5.00;;;;;;5411884;26;20249;-70
2024/05/01 07:37:28;;;;;;;9.63;4.85;;;23.30;5.00;;;;;;5411929;26;20270;-71
2024/05/01 07:39:54;;;;;;;6.90;4.57;;;23.40;5.00;;;;;;5412149;26;20227;-70
2024/05/01 07:42:19;;;;;;;7.10;4.22;;;23.50;5.00;;;;;;5411998;26;20567;-69
2024/05/01 07:44:46;;;;;;;7.15;5.18;;;23.60;5.00;;;;;;5410647;26;20777;-70
2024/05/01 07:47:11;;;;;;;7.30;4.25;;;23.60;5.00;;;;;;5411479;26;20226;-69
2024/05/01 07:49:37;;;;;;;8.73;4.75;;;23.70;5.00;;;;;;5411860;26;20331;-69
2024/05/01 07:52:04;;;;;;;6.32;4.13;;;23.90;5.00;;;;;;5411163;26;20544;-71
2024/05/01 07:54:39;;;;;;;8.63;4.07;;;24.00;5.00;;;;;;5411150;26;20234;-69
2024/05/01 07:57:04;;;;;;;9.63;4.88;;;24.10;5.00;;;;;;5411268;26;20282;-70
2024/05/01 07:59:30;;;;;;;6.72;3.72;;;24.10;5.00;;;;;;5410840;26;20316;-69
2024/05/01 08:01:55;;;;;;;4.47;4.05;;;24.10;5.00;;;;;;5411797;26;20737;-70
2024/05/01 08:04:21;;;;;;;5.28;4.05;;;24.20;5.00;;;;;;5411155;26;20235;-70
2024/05/01 08:06:46;;;;;;;6.00;4.00;;;24.20;5.00;;;;;;5410781;26;20223;-72
2024/05/01 08:09:12;;;;;;;8.65;4.15;;;24.30;5.00;;;;;;5413698;26;20727;-70
2024/05/01 08:11:38;;;;;;;5.57;3.92;;;24.30;5.00;;;;;;5415014;26;20253;-70
2024/05/01 08:14:03;;;;;;;6.60;4.80;;;24.40;5.00;;;;;;5414202;26;20238;-71
2024/05/01 08:16:29;;;;;;;7.20;4.75;;;24.40;5.00;;;;;;5414283;26;20226;-71
2024/05/01 08:18:54;;;;;;;10.23;4.80;;;24.40;5.00;;;;;;5414656;26;20274;-70
2024/05/01 08:21:20;;;;;;;11.32;4.53;;;24.40;5.00;;;;;;5414747;26;20222;-70
2024/05/01 08:23:46;;;;;;;9.68;4.20;;;24.50;5.00;;;;;;5414720;26;20617;-70
2024/05/01 08:26:11;;;;;;;7.28;4.40;;;24.50;5.00;;;;;;5414593;26;20268;-72
2024/05/01 08:28:37;;;;;;;5.88;4.50;;;24.50;5.00;;;;;;5414611;26;20223;-70
2024/05/01 08:31:02;;;;;;;8.43;4.45;;;24.60;5.00;;;;;;5414853;26;20219;-71
2024/05/01 08:33:28;;;;;;;5.95;4.40;;;24.60;5.00;;;;;;5414700;26;20235;-69
2024/05/01 08:35:53;;;;;;;7.43;4.25;;;24.50;5.00;;;;;;5414266;26;20324;-71
2024/05/01 08:38:19;;;;;;;5.28;4.32;;;24.60;5.00;;;;;;5414652;26;20579;-71
2024/05/01 08:40:44;;;;;;;5.72;5.00;;;24.60;5.00;;;;;;5414284;26;20231;-71
2024/05/01 08:43:10;;;;;;;6.30;4.43;;;24.70;5.00;;;;;;5414680;26;20242;-70
2024/05/01 08:45:40;;;;;;;4.95;4.45;;;24.80;5.00;;;;;;5414111;26;20227;-70
2024/05/01 08:48:07;;;;;;;5.18;4.20;;;24.90;5.00;;;;;;5414390;26;20267;-71
2024/05/01 08:50:32;;;;;;;8.60;4.70;;;25.00;5.00;;;;;;5414195;26;20323;-70
2024/05/01 08:53:01;;;;;;;5.82;4.20;;;25.10;5.00;;;;;;5414145;26;20298;-71
2024/05/01 08:55:29;;;;;;;7.40;4.53;;;25.10;5.00;;;;;;5414112;26;20695;-71
2024/05/01 08:57:56;;;;;;;7.82;4.07;;;25.10;5.00;;;;;;5414432;26;20223;-70
2024/05/01 09:00:22;;;;;;;11.88;4.50;;;25.30;5.00;;;;;;5414249;26;20231;-71
2024/05/01 09:02:48;;;;;;;6.82;4.15;;;25.60;5.00;;;;;;5414252;26;20238;-70
2024/05/01 09:05:13;;;;;;;7.53;4.18;;;25.70;5.00;;;;;;5413841;26;20323;-70
2024/05/01 09:07:39;;;;;;;10.38;4.22;;;25.90;5.00;;;;;;5414096;26;20681;-71
2024/05/01 09:10:05;;;;;;;6.00;3.75;;;25.90;5.00;;;;;;5413972;26;20641;-72
2024/05/01 09:12:31;;;;;;;4.75;3.97;;;26.10;5.00;;;;;;5414172;26;20573;-71
2024/05/01 09:15:07;;;;;;;5.60;3.92;;;26.20;5.00;;;;;;5414069;26;20317;-70
2024/05/01 09:17:36;;;;;;;5.38;4.43;;;26.30;5.00;;;;;;5414780;26;20218;-72
2024/05/01 09:20:02;;;;;;;6.97;4.30;;;26.40;5.00;;;;;;5413643;26;20262;-70
2024/05/01 09:22:27;;;;;;;10.07;3.90;;;26.40;5.00;;;;;;5413713;26;20317;-70
2024/05/01 09:24:53;;;;;;;5.82;3.80;;;26.50;5.00;;;;;;5413704;26;20703;-70
2024/05/01 09:27:18;;;;;;;4.00;3.42;;;26.40;5.00;;;;;;5414136;26;20219;-69
2024/05/01 09:29:44;;;;;;;9.23;4.18;;;26.60;5.00;;;;;;5413897;26;20223;-70
2024/05/01 09:32:09;;;;;;;5.25;3.83;;;26.60;5.00;;;;;;5413785;26;20218;-71
2024/05/01 09:34:35;;;;;;;5.13;3.90;;;26.50;5.00;;;;;;5413444;26;20346;-70
2024/05/01 09:37:03;;;;;;;7.20;4.03;;;26.60;5.00;;;;;;5414106;26;20249;-71
2024/05/01 09:39:38;;;;;;;12.82;3.97;;;26.70;5.00;;;;;;5413806;26;20300;-71
2024/05/01 09:42:06;;;;;;;6.72;3.60;;;26.70;5.00;;;;;;5414482;26;20222;-71
2024/05/01 09:44:33;;;;;;;12.25;4.05;;;26.60;5.00;;;;;;5412608;26;20298;-70
2024/05/01 09:47:01;;;;;;;5.88;3.50;;;26.70;5.00;;;;;;5413933;26;20218;-71
2024/05/01 09:49:27;;;;;;;5.30;4.00;;;26.70;5.00;;;;;;5414006;26;20318;-70
2024/05/01 09:51:54;;;;;;;5.93;3.60;;;26.70;5.00;;;;;;5413526;26;20780;-72
2024/05/01 09:54:23;;;;;;;5.85;3.80;;;26.80;5.00;;;;;;5413624;26;20727;-72
2024/05/01 09:56:49;;;;;;;8.00;3.67;;;26.80;5.00;;;;;;5413789;26;20219;-71
2024/05/01 09:59:14;;;;;;;7.90;3.70;;;26.90;5.00;;;;;;5413646;26;20711;-71
2024/05/01 10:01:49;;;;;;;6.07;3.70;;;26.90;5.00;;;;;;5413422;26;20253;-72
2024/05/01 10:04:17;;;;;;;7.55;3.58;;;27.00;5.00;;;;;;5413800;26;20234;-71
2024/05/01 10:06:42;;;;;;;4.70;3.88;;;26.90;5.00;;;;;;5413542;26;20292;-71
2024/05/01 10:09:08;;;;;;;5.03;3.83;;;27.10;5.00;;;;;;5413453;26;21021;-72
2024/05/01 10:12:03;;;;;;;5.43;3.53;;;27.10;5.00;;;;;;5413901;26;20219;-72
2024/05/01 10:14:35;;;;;;;7.93;4.10;;;27.10;5.00;;;;;;5413089;26;20285;-72
2024/05/01 10:17:11;;;;;;;11.77;3.47;;;27.10;5.00;;;;;;5413533;26;20273;-71
2024/05/01 10:19:59;;;;;;;6.50;4.13;;;27.00;5.00;;;;;;5411339;26;20257;-70
2024/05/01 10:22:25;;;;;;;15.30;4.32;;;27.10;5.00;;;;;;5413093;26;20302;-71
2024/05/01 10:25:00;;;;;;;4.78;4.28;;;27.10;5.00;;;;;;5413000;26;20565;-70
2024/05/01 10:27:25;;;;;;;6.57;3.92;;;27.10;5.00;;;;;;5413455;26;20308;-71
2024/05/01 10:29:51;;;;;;;7.05;3.67;;;27.10;5.00;;;;;;5413178;26;20223;-71
2024/05/01 10:32:16;;;;;;;11.02;3.83;;;27.00;5.00;;;;;;5412881;26;20699;-72
2024/05/01 10:34:43;;;;;;;7.88;3.40;;;27.30;5.00;;;;;;5413357;26;20308;-71
2024/05/01 10:37:13;;;;;;;4.97;3.67;;;27.40;5.00;;;;;;5413591;26;20266;-72
2024/05/01 10:39:38;;;;;;;8.07;3.83;;;27.30;5.00;;;;;;5413152;26;20274;-72
2024/05/01 10:42:05;;;;;;;4.45;3.42;;;27.30;5.00;;;;;;5412939;26;20807;-71
2024/05/01 10:44:31;;;;;;;7.95;3.92;;;27.20;5.00;;;;;;5412713;26;20274;-72
2024/05/01 10:46:56;;;;;;;3.83;3.42;;;27.10;5.00;;;;;;5413046;26;20230;-72
2024/05/01 10:49:21;;;;;;;7.05;3.80;;;27.00;5.00;;;;;;5412991;26;20703;-72
2024/05/01 10:51:49;;;;;;;8.93;3.60;;;27.10;5.00;;;;;;5413474;26;20273;-72
2024/05/01 10:54:14;;;;;;;6.53;4.22;;;27.10;5.00;;;;;;5413264;26;20246;-72
2024/05/01 10:56:40;;;;;;;5.25;3.03;;;27.00;5.00;;;;;;5412449;26;20273;-71
2024/05/01 10:59:17;;;;;;;6.40;3.45;;;27.20;5.00;;;;;;5412894;26;20593;-72
2024/05/01 11:01:42;;;;;;;4.70;3.50;;;27.20;5.00;;;;;;5412775;26;20223;-71
2024/05/01 11:04:08;;;;;;;5.47;3.60;;;27.20;5.00;;;;;;5412758;26;20711;-70
2024/05/01 11:06:33;;;;;;;5.90;3.47;;;27.20;5.00;;;;;;5412470;26;20267;-70
2024/05/01 11:09:03;;;;;;;5.38;3.47;;;27.20;5.00;;;;;;5412592;26;20269;-70
2024/05/01 11:11:33;;;;;;;5.30;3.60;;;27.20;5.00;;;;;;5412588;26;20219;-70
2024/05/01 11:13:59;;;;;;;7.35;3.83;;;27.10;5.00;;;;;;5412350;26;20242;-69
2024/05/01 11:16:25;;;;;;;3.72;3.20;;;27.00;5.00;;;;;;5411994;26;20234;-70
2024/05/01 11:18:52;;;;;;;6.32;3.53;;;27.10;5.00;;;;;;5412227;26;20223;-70
2024/05/01 11:21:18;;;;;;;5.75;3.78;;;27.10;5.00;;;;;;5412334;26;20234;-70
2024/05/01 11:23:43;;;;;;;8.48;3.92;;;27.00;5.00;;;;;;5412023;26;20773;-71
2024/05/01 11:26:09;;;;;;;4.25;3.40;;;27.00;5.00;;;;;;5411909;26;20270;-70
2024/05/01 11:28:34;;;;;;;3.47;3.17;;;26.90;5.00;;;;;;5412329;26;20353;-71
2024/05/01 11:31:00;;;;;;;8.02;3.30;;;26.90;5.00;;;;;;5412340;26;20216;-71
2024/05/01 11:33:26;;;;;;;8.02;3.47;;;26.90;5.00;;;;;;5412143;26;20281;-71
2024/05/01 11:35:52;;;;;;;7.22;3.40;;;26.90;5.00;;;;;;5411753;26;20249;-70
2024/05/01 11:38:17;;;;;;;5.22;3.25;;;26.90;5.00;;;;;;5412040;26;20226;-70
2024/05/01 11:40:43;;;;;;;6.10;3.88;;;27.00;5.00;;;;;;5411917;26;20261;-70
2024/05/01 11:43:08;;;;;;;11.23;3.63;;;26.90;5.00;;;;;;5414682;26;20286;-70
2024/05/01 11:45:34;;;;;;;5.32;3.22;;;26.90;5.00;;;;;;5415388;26;20269;-70
2024/05/01 11:47:59;;;;;;;6.78;3.67;;;26.90;5.00;;;;;;5415338;26;20218;-69
2024/05/01 11:50:25;;;;;;;5.50;3.65;;;26.90;5.00;;;;;;5414926;26;20269;-69
2024/05/01 11:52:50;;;;;;;4.80;3.50;;;26.90;5.00;;;;;;5415035;26;21093;-70
2024/05/01 11:55:29;;;;;;;4.50;3.35;;;27.00;5.00;;;;;;5415375;26;20227;-71
2024/05/01 11:58:07;;;;;;;5.05;3.25;;;26.90;5.00;;;;;;5415143;26;20823;-70
2024/05/01 12:00:32;;;;;;;5.22;3.30;;;26.90;5.00;;;;;;5415166;26;20222;-71
2024/05/01 12:02:59;;;;;;;6.68;3.60;;;26.80;5.00;;;;;;5415244;26;20635;-71
2024/05/01 12:05:24;;;;;;;4.20;3.08;;;26.90;5.00;;;;;;5414896;26;20299;-70
2024/05/01 12:07:50;;;;;;;6.18;3.00;;;26.90;5.00;;;;;;5414969;26;20219;-70
2024/05/01 12:10:16;;;;;;;3.58;3.20;;;26.80;5.00;;;;;;5414771;26;20560;-70
2024/05/01 12:12:43;;;;;;;3.83;3.40;;;26.90;5.00;;;;;;5415033;26;20273;-70
2024/05/01 12:15:10;;;;;;;8.15;3.50;;;26.90;5.00;;;;;;5414907;26;20222;-70
2024/05/01 12:17:35;;;;;;;7.15;3.10;;;26.90;5.00;;;;;;5415256;26;20352;-69
2024/05/01 12:20:01;;;;;;;7.10;3.92;;;26.90;5.00;;;;;;5414538;26;20731;-70
2024/05/01 12:22:26;;;;;;;5.93;3.30;;;26.90;5.00;;;;;;5414832;26;20261;-71
2024/05/01 12:24:52;;;;;;;7.35;3.40;;;26.90;5.00;;;;;;5414286;26;20758;-70
2024/05/01 12:27:17;;;;;;;5.82;3.50;;;27.00;5.00;;;;;;5414678;26;20219;-70
2024/05/01 12:29:44;;;;;;;5.13;3.28;;;27.00;5.00;;;;;;5414439;26;20230;-70
2024/05/01 12:32:38;;;;;;;7.40;3.28;;;27.00;5.00;;;;;;5415077;26;20323;-70
2024/05/01 12:35:18;;;;;;;6.65;3.20;;;27.00;5.00;;;;;;5415352;26;20615;-69
2024/05/01 12:37:48;;;;;;;8.98;3.67;;;27.00;5.00;;;;;;5415037;26;20223;-70
2024/05/01 12:40:16;;;;;;;4.85;3.20;;;27.00;5.00;;;;;;5415692;26;20704;-70
2024/05/01 12:42:42;;;;;;;4.07;3.17;;;26.90;5.00;;;;;;5415829;26;20231;-71
2024/05/01 12:45:22;;;;;;;6.10;2.97;;;26.80;5.00;;;;;;5415296;26;20293;-71
2024/05/01 12:47:48;;;;;;;3.30;3.03;;;26.80;5.00;;;;;;5416433;26;20227;-71